Launceston Airport
YMLT : now visible

Airfield :











YOU CAN JOIN US ON...

 
LOGIN :

Register | Disclaimer

   EN    FR    IT 

 









Legend :    VFR   Marginal VFR   IFR   Intensive IFR   Very Intensive IFR
Visi :
Ceiling :
>= 8 km
>= 3000ft
5 to 8 km
1000 to 3000 ft
1500m to 5 km
500 to 1000 ft
800 to 1500m
200 to 500 ft
< 800m
< 200 ft
Symbols :   Thunderstorms  Fog  Heavy snow  Heavy precipitations  Wind > 20 kt






- Airport Elevation : 562 ft
- IATA code : LST


YMLT - Launceston

CURRENT METAR :
  • 280200Z AUTO 23006KT 200V260 9999 // SCT030 BKN037 OVC073 09/06 Q1011

EXPIRED METARs :
  • 280130Z AUTO 23005KT 9999 // SCT041 OVC076 09/06 Q1011
  • 280100Z AUTO 21005KT 9999 // BKN082 08/05 Q1012 RF00.0/000.0
  • 280030Z AUTO 20004KT 9999 // SCT068 07/05 Q1012 RF00.0/000.0
  • 280000Z AUTO 20005KT 9999 // NCD 06/04 Q1012 RF00.0/000.0
  • 272330Z AUTO 21007KT 9999 // SCT081 05/03 Q1012 RF00.0/000.0
  • 272300Z AUTO 18005KT 9999 // SCT081 04/03 Q1012 RF00.0/000.0

TAF AMD TAF YMLT
Valid from the 28 at 00:00 until the 29 at 00:00 UTC


272322Z 2800/2900 18005KT 9999 -SHRA SCT050
FM280100 34006KT 9999 -SHRA SCT015 BKN020
FM280600 35008KT 9999 NSW SCT015
BECMG 2810/2812 VRB03KT 9999 SCT010 INTER 2802/2806 6000 SHRA BKN015
PROB30 2811/2823 0300 FG BKN001
YMMM FIR / Oceania



MET'MAP, your aeronautical weather chart ! - Copyright ORBIFLY December 2007 - Disclaimer

ORBIFLY MET'MAP TEAM :

Programming & Development : Alexandra Zaïnal
Original concept : Baudouin d'Aumeries
Technical & hardware support : Manuel Goepfert
Assistance : Marc-Olivier Méhu

Contact : metmap@orbifly.com




SOURCES & CREDITS :

   NOAA       Earth
Advisory